Time;durP1;ratioP1;P1;durP2;ratioP2;P2;SDS_P1;SDS_P2;PMS_P1;PMS_P2;Temp;Humidity;BMP_temperature;BMP_pressure;BME280_temperature;BME280_humidity;BME280_pressure;Samples;Min_cycle;Max_cycle;Signal;HPM_P1;HPM_P2
2020/12/28 00:00:33;;;;;;;0.80;0.80;;;;;;;4.59;78.26;93497.81;5103829;28;20184;-66
2020/12/28 00:02:59;;;;;;;0.70;0.70;;;;;;;4.45;78.71;93494.28;5125720;27;20231;-66
2020/12/28 00:05:26;;;;;;;0.70;0.70;;;;;;;4.49;78.52;93494.50;5114289;28;20615;-65
2020/12/28 00:07:53;;;;;;;0.80;0.80;;;;;;;4.44;79.44;93500.50;5129166;27;20179;-66
2020/12/28 00:10:19;;;;;;;0.70;0.70;;;;;;;4.50;78.40;93496.06;5121931;27;20198;-66
2020/12/28 00:12:48;;;;;;;1.10;1.03;;;;;;;4.53;78.63;93495.50;5125609;27;20203;-66
2020/12/28 00:15:26;;;;;;;0.70;0.70;;;;;;;4.42;79.57;93492.22;5114270;27;20743;-66
2020/12/28 00:17:54;;;;;;;1.00;1.00;;;;;;;4.39;79.80;93492.75;5126624;28;20180;-66
2020/12/28 00:20:21;;;;;;;0.87;0.87;;;;;;;4.43;79.30;93480.78;5120681;28;20171;-66
2020/12/28 00:22:47;;;;;;;0.93;0.90;;;;;;;4.37;79.33;93487.06;5130519;28;20641;-66
2020/12/28 00:25:14;;;;;;;1.07;0.97;;;;;;;4.28;79.84;93483.50;5114579;28;20179;-65
2020/12/28 00:27:40;;;;;;;3.30;0.87;;;;;;;4.32;79.62;93484.50;5115755;28;20167;-66
2020/12/28 00:30:06;;;;;;;1.00;1.00;;;;;;;4.33;79.82;93483.47;5105419;28;20176;-64
2020/12/28 00:32:36;;;;;;;1.13;0.83;;;;;;;4.32;79.99;93484.50;5122505;28;20206;-64
2020/12/28 00:35:08;;;;;;;1.57;1.00;;;;;;;4.22;80.62;93481.97;5117038;28;20245;-64
2020/12/28 00:37:33;;;;;;;1.00;1.00;;;;;;;4.11;81.56;93478.66;5128909;27;20634;-65
2020/12/28 00:39:59;;;;;;;0.90;0.90;;;;;;;4.16;81.58;93470.84;5121863;27;20235;-66
2020/12/28 00:42:25;;;;;;;0.70;0.70;;;;;;;4.23;81.21;93480.94;5133783;27;20211;-66
2020/12/28 00:44:51;;;;;;;3.43;1.00;;;;;;;4.24;80.87;93468.72;5123315;27;20168;-66
2020/12/28 00:47:17;;;;;;;0.63;0.63;;;;;;;4.29;80.83;93476.50;5115890;27;20544;-66
2020/12/28 00:49:43;;;;;;;0.80;0.80;;;;;;;4.30;80.86;93478.03;5118853;27;20190;-66
2020/12/28 00:52:08;;;;;;;0.70;0.70;;;;;;;4.18;82.18;93478.34;5133600;27;20566;-66
2020/12/28 00:54:34;;;;;;;1.77;0.97;;;;;;;4.23;81.90;93475.75;5125978;27;20266;-66
2020/12/28 00:57:00;;;;;;;0.70;0.70;;;;;;;4.12;82.32;93467.22;5117627;27;20649;-66
2020/12/28 00:59:26;;;;;;;0.90;0.90;;;;;;;4.24;81.74;93463.53;5131239;27;20198;-67
2020/12/28 01:01:56;;;;;;;1.23;1.13;;;;;;;4.23;81.92;93455.00;5102430;28;20232;-66
2020/12/28 01:04:21;;;;;;;0.80;0.80;;;;;;;4.20;81.96;93455.53;5094707;28;20708;-66
2020/12/28 01:06:47;;;;;;;0.70;0.70;;;;;;;4.22;82.80;93450.88;5094909;28;20169;-66
2020/12/28 01:09:12;;;;;;;0.70;0.70;;;;;;;4.25;83.07;93452.91;5094947;28;20283;-66
2020/12/28 01:11:38;;;;;;;1.00;0.90;;;;;;;4.22;83.12;93450.88;5093571;28;20176;-66
2020/12/28 01:14:03;;;;;;;0.70;0.70;;;;;;;4.36;82.77;93454.41;5094916;28;20204;-68
2020/12/28 01:16:29;;;;;;;0.93;0.93;;;;;;;4.28;83.32;93451.63;5094523;28;20173;-66
2020/12/28 01:18:54;;;;;;;0.80;0.80;;;;;;;4.25;83.60;93449.53;5095449;28;20605;-66
2020/12/28 01:21:21;;;;;;;0.60;0.60;;;;;;;4.27;83.48;93450.84;5094435;28;20219;-66
2020/12/28 01:23:47;;;;;;;0.63;0.63;;;;;;;4.29;83.44;93460.94;5094803;28;20204;-66
2020/12/28 01:26:14;;;;;;;1.20;0.87;;;;;;;4.29;83.95;93461.69;5093804;28;20184;-66
2020/12/28 01:28:40;;;;;;;1.17;0.80;;;;;;;4.31;83.81;93462.22;5094954;28;20177;-66
2020/12/28 01:31:07;;;;;;;0.80;0.80;;;;;;;4.17;84.31;93466.44;5093980;28;20207;-68
2020/12/28 01:33:33;;;;;;;1.13;0.90;;;;;;;4.27;83.89;93466.38;5094592;28;20211;-66
2020/12/28 01:35:58;;;;;;;0.80;0.80;;;;;;;4.30;83.88;93465.84;5095299;28;20173;-66
2020/12/28 01:38:24;;;;;;;1.30;0.77;;;;;;;4.22;84.95;93463.81;5093853;28;20180;-70
2020/12/28 01:40:49;;;;;;;1.90;0.80;;;;;;;4.29;84.31;93466.88;5094679;28;20173;-66
2020/12/28 01:43:16;;;;;;;0.80;0.80;;;;;;;4.36;83.74;93466.56;5093775;28;20208;-66
2020/12/28 01:45:42;;;;;;;0.80;0.80;;;;;;;4.32;84.51;93466.34;5094400;28;20169;-66
2020/12/28 01:48:08;;;;;;;1.17;0.60;;;;;;;4.33;83.75;93467.13;5093999;28;20193;-68
2020/12/28 01:50:33;;;;;;;0.70;0.70;;;;;;;4.28;83.94;93465.34;5093395;28;20173;-66
2020/12/28 01:52:59;;;;;;;0.60;0.60;;;;;;;4.37;84.50;93468.13;5094612;28;20200;-66
2020/12/28 01:55:25;;;;;;;0.60;0.60;;;;;;;4.36;84.65;93475.13;5094196;28;20213;-66
2020/12/28 01:57:51;;;;;;;0.60;0.60;;;;;;;4.31;85.11;93464.81;5093674;28;20184;-66
2020/12/28 02:00:16;;;;;;;0.70;0.70;;;;;;;4.33;85.43;93465.31;5093399;28;20238;-66
2020/12/28 02:02:42;;;;;;;0.70;0.70;;;;;;;4.24;85.67;93455.75;5110288;28;20250;-66
2020/12/28 02:05:08;;;;;;;0.60;0.60;;;;;;;4.28;86.33;93459.38;5129402;27;20663;-68
2020/12/28 02:07:38;;;;;;;0.90;0.63;;;;;;;4.26;86.47;93461.47;5116584;27;20172;-66
2020/12/28 02:10:10;;;;;;;0.60;0.60;;;;;;;4.27;86.72;93452.66;5116236;27;21695;-66
2020/12/28 02:12:36;;;;;;;0.97;0.67;;;;;;;4.19;87.71;93459.94;5096059;28;20218;-66
2020/12/28 02:15:03;;;;;;;0.63;0.60;;;;;;;4.20;87.74;93458.13;5128286;27;20271;-67
2020/12/28 02:17:28;;;;;;;0.63;0.63;;;;;;;4.15;88.33;93461.53;5131921;27;20294;-66
2020/12/28 02:19:54;;;;;;;1.33;0.60;;;;;;;4.18;89.68;93460.97;5118410;27;20259;-66
2020/12/28 02:22:19;;;;;;;0.53;0.53;;;;;;;4.13;90.19;93461.00;5126045;27;20195;-69
2020/12/28 02:24:45;;;;;;;0.90;0.90;;;;;;;4.17;90.85;93456.88;5114088;28;20160;-67
2020/12/28 02:27:10;;;;;;;0.70;0.70;;;;;;;4.19;91.07;93456.56;5128221;27;20167;-69
2020/12/28 02:29:36;;;;;;;0.87;0.70;;;;;;;4.25;90.92;93455.50;5121323;27;20174;-67
2020/12/28 02:32:01;;;;;;;0.60;0.60;;;;;;;4.18;91.23;93449.84;5120927;27;20195;-67
2020/12/28 02:34:27;;;;;;;0.60;0.60;;;;;;;4.13;91.44;93437.69;5123861;27;20673;-67
2020/12/28 02:36:52;;;;;;;0.60;0.60;;;;;;;4.16;92.01;93436.38;5127695;27;20172;-67
2020/12/28 02:39:18;;;;;;;0.70;0.60;;;;;;;4.05;92.80;93427.13;5131915;27;20178;-67
2020/12/28 02:41:43;;;;;;;0.70;0.70;;;;;;;4.05;92.57;93427.13;5117560;27;20175;-67
2020/12/28 02:44:10;;;;;;;0.60;0.60;;;;;;;4.15;92.11;93424.47;5133892;27;20167;-69
2020/12/28 02:46:35;;;;;;;1.40;1.30;;;;;;;4.01;92.42;93413.91;5131889;27;20530;-67
2020/12/28 02:49:01;;;;;;;0.57;0.57;;;;;;;4.05;91.98;93417.53;5121017;27;20179;-66
2020/12/28 02:51:26;;;;;;;1.90;0.70;;;;;;;4.07;91.86;93415.44;5095181;27;20241;-70
2020/12/28 02:53:52;;;;;;;0.60;0.60;;;;;;;4.02;91.28;93412.09;5134105;27;20195;-66
2020/12/28 02:56:17;;;;;;;0.63;0.63;;;;;;;3.95;91.55;93420.19;5131661;27;20167;-67
2020/12/28 02:58:43;;;;;;;0.60;0.60;;;;;;;3.92;92.50;93418.13;5121868;27;20187;-66
2020/12/28 03:01:11;;;;;;;0.57;0.57;;;;;;;3.88;92.07;93414.53;5111569;27;20242;-69
2020/12/28 03:03:36;;;;;;;1.07;0.60;;;;;;;3.89;92.05;93408.31;5131136;27;20769;-67
2020/12/28 03:06:02;;;;;;;1.37;0.60;;;;;;;3.85;92.52;93420.22;5128952;27;20251;-67
2020/12/28 03:08:27;;;;;;;2.03;0.80;;;;;;;3.82;93.52;93404.47;5124132;27;20699;-66
2020/12/28 03:10:52;;;;;;;0.60;0.60;;;;;;;3.79;92.99;93399.84;5125407;27;20496;-66
2020/12/28 03:13:18;;;;;;;0.50;0.50;;;;;;;3.82;92.03;93405.25;5116600;27;20207;-66
2020/12/28 03:15:43;;;;;;;0.60;0.60;;;;;;;3.81;92.19;93402.91;5125757;27;20241;-66
2020/12/28 03:18:09;;;;;;;0.60;0.60;;;;;;;3.93;91.72;93403.38;5122621;27;20221;-69
2020/12/28 03:20:34;;;;;;;0.50;0.50;;;;;;;3.94;91.24;93403.09;5119761;27;20605;-67
2020/12/28 03:23:00;;;;;;;0.60;0.60;;;;;;;3.91;90.85;93413.97;5129747;27;20195;-68
2020/12/28 03:25:25;;;;;;;0.53;0.53;;;;;;;3.91;91.06;93397.66;5115287;27;20164;-66
2020/12/28 03:27:51;;;;;;;0.60;0.60;;;;;;;3.90;90.36;93399.47;5126145;27;20163;-66
2020/12/28 03:30:18;;;;;;;0.50;0.50;;;;;;;3.84;91.18;93403.16;5123329;27;20175;-67
2020/12/28 03:32:43;;;;;;;1.13;0.70;;;;;;;3.92;90.19;93394.03;5118646;27;20225;-67
2020/12/28 03:35:15;;;;;;;0.50;0.50;;;;;;;3.86;90.73;93397.69;5129450;27;20236;-69
2020/12/28 03:37:40;;;;;;;0.70;0.70;;;;;;;3.68;91.50;93399.09;5118580;27;20701;-66
2020/12/28 03:40:06;;;;;;;1.37;0.63;;;;;;;3.74;90.81;93396.22;5124541;27;20167;-66
2020/12/28 03:42:31;;;;;;;1.80;0.70;;;;;;;3.76;90.49;93401.13;5120046;27;20532;-66
2020/12/28 03:44:57;;;;;;;0.80;0.80;;;;;;;3.73;90.67;93399.09;5115828;27;20164;-66
2020/12/28 03:47:22;;;;;;;0.40;0.40;;;;;;;3.84;89.96;93392.03;5127292;27;20657;-66
2020/12/28 03:49:48;;;;;;;0.70;0.70;;;;;;;3.73;90.89;93388.72;5126888;27;20202;-67
2020/12/28 03:52:13;;;;;;;0.60;0.60;;;;;;;3.74;91.44;93374.72;5131602;27;20223;-68
2020/12/28 03:54:39;;;;;;;1.07;0.80;;;;;;;3.76;91.01;93370.81;5120766;27;20203;-66
2020/12/28 03:57:05;;;;;;;0.60;0.60;;;;;;;3.80;90.88;93368.47;5128806;27;20196;-66
2020/12/28 03:59:30;;;;;;;0.63;0.63;;;;;;;3.70;91.13;93348.59;5128725;27;20925;-66
2020/12/28 04:01:56;;;;;;;0.70;0.70;;;;;;;3.80;91.48;93354.75;5114462;27;20268;-68
2020/12/28 04:04:21;;;;;;;0.40;0.40;;;;;;;3.70;91.54;93365.94;5124225;27;20168;-66
2020/12/28 04:06:46;;;;;;;0.80;0.60;;;;;;;3.67;92.01;93367.25;5112901;27;20259;-66
2020/12/28 04:09:12;;;;;;;0.57;0.57;;;;;;;3.58;91.73;93358.50;5113243;27;20171;-69
2020/12/28 04:11:37;;;;;;;1.43;0.60;;;;;;;3.66;92.15;93352.75;5129075;27;20646;-68
2020/12/28 04:14:03;;;;;;;2.50;0.70;;;;;;;3.63;92.02;93344.75;5127186;27;20208;-66
2020/12/28 04:16:28;;;;;;;1.67;0.60;;;;;;;3.58;92.25;93358.50;5120248;27;20979;-66
2020/12/28 04:18:54;;;;;;;0.60;0.60;;;;;;;3.51;91.96;93355.41;5131671;28;20637;-68
2020/12/28 04:21:19;;;;;;;0.50;0.50;;;;;;;3.50;92.56;93345.34;5116908;28;20194;-66
2020/12/28 04:23:44;;;;;;;0.73;0.53;;;;;;;3.54;91.32;93349.72;5095027;28;20196;-66
2020/12/28 04:26:13;;;;;;;0.60;0.60;;;;;;;3.62;90.99;93348.41;5116817;28;20180;-68
2020/12/28 04:28:38;;;;;;;0.70;0.70;;;;;;;3.50;92.13;93347.94;5131057;28;20220;-66
2020/12/28 04:31:08;;;;;;;0.70;0.70;;;;;;;3.56;91.99;93349.47;5120151;28;20180;-67
2020/12/28 04:33:34;;;;;;;0.80;0.80;;;;;;;3.57;92.22;93359.53;5111875;28;20249;-66
2020/12/28 04:35:59;;;;;;;0.53;0.53;;;;;;;3.73;91.60;93362.81;5128689;28;20570;-67
2020/12/28 04:38:25;;;;;;;0.77;0.70;;;;;;;3.85;91.08;93368.44;5113161;28;20195;-67
2020/12/28 04:40:50;;;;;;;0.53;0.53;;;;;;;3.86;90.96;93364.03;5112838;28;20649;-66
2020/12/28 04:43:16;;;;;;;0.60;0.60;;;;;;;3.82;91.19;93350.06;5124894;28;20289;-67
2020/12/28 04:45:41;;;;;;;1.27;0.67;;;;;;;3.83;90.89;93355.00;5115751;28;20217;-67
2020/12/28 04:48:08;;;;;;;0.67;0.67;;;;;;;3.87;90.51;93350.03;5129223;28;20175;-66
2020/12/28 04:50:35;;;;;;;0.50;0.50;;;;;;;3.75;91.01;93350.38;5115892;28;20571;-67
2020/12/28 04:53:03;;;;;;;1.10;0.60;;;;;;;3.68;90.92;93347.28;5124313;28;20199;-66
2020/12/28 04:55:28;;;;;;;2.00;0.70;;;;;;;3.60;91.45;93340.09;5123069;28;20199;-67
2020/12/28 04:57:53;;;;;;;0.60;0.60;;;;;;;3.76;91.03;93336.38;5116618;28;20176;-66
2020/12/28 05:00:19;;;;;;;0.60;0.60;;;;;;;3.79;90.28;93342.84;5128779;28;20923;-67
2020/12/28 05:02:46;;;;;;;0.60;0.60;;;;;;;3.78;91.16;93342.06;5130145;27;20222;-66
2020/12/28 05:05:13;;;;;;;0.67;0.67;;;;;;;3.92;89.16;93335.22;5150878;27;20167;-69
2020/12/28 05:07:38;;;;;;;0.70;0.70;;;;;;;3.82;89.19;93332.72;5139338;27;20168;-66
2020/12/28 05:10:04;;;;;;;0.70;0.70;;;;;;;3.74;90.21;93325.50;5133665;27;20181;-67
2020/12/28 05:12:30;;;;;;;0.60;0.60;;;;;;;3.88;90.13;93321.28;5147927;27;20196;-66
2020/12/28 05:15:08;;;;;;;0.60;0.60;;;;;;;3.93;89.86;93323.06;5137710;27;20202;-66
2020/12/28 05:17:34;;;;;;;0.50;0.50;;;;;;;3.83;90.08;93323.13;5140338;27;20198;-66
2020/12/28 05:20:00;;;;;;;0.77;0.70;;;;;;;3.81;89.77;93320.81;5133606;27;20203;-67
2020/12/28 05:22:30;;;;;;;0.93;0.60;;;;;;;3.93;90.34;93323.84;5149417;27;20306;-66
2020/12/28 05:24:56;;;;;;;1.17;0.70;;;;;;;3.96;88.90;93320.69;5138866;27;20170;-70
2020/12/28 05:27:23;;;;;;;2.23;0.67;;;;;;;3.95;89.16;93321.75;5155868;27;20191;-67
2020/12/28 05:29:50;;;;;;;0.73;0.73;;;;;;;3.96;89.26;93320.69;5154842;27;20254;-66
2020/12/28 05:32:15;;;;;;;0.73;0.73;;;;;;;4.02;89.01;93316.25;5155286;27;20300;-67
2020/12/28 05:34:47;;;;;;;0.70;0.70;;;;;;;4.00;89.60;93320.94;5155497;27;20194;-66
2020/12/28 05:37:14;;;;;;;0.80;0.80;;;;;;;3.99;90.06;93327.16;5149277;27;20237;-69
2020/12/28 05:39:41;;;;;;;0.83;0.60;;;;;;;3.84;90.93;93325.47;5142908;27;20664;-68
2020/12/28 05:42:09;;;;;;;0.70;0.70;;;;;;;3.84;91.15;93332.47;5137322;27;20759;-67
2020/12/28 05:44:39;;;;;;;0.60;0.60;;;;;;;3.76;91.93;93326.03;5152383;27;20254;-66
2020/12/28 05:47:16;;;;;;;1.33;0.90;;;;;;;3.76;91.77;93329.38;5140528;27;20594;-66
2020/12/28 05:49:46;;;;;;;0.73;0.73;;;;;;;3.80;92.50;93331.44;5148263;27;20182;-66
2020/12/28 05:52:13;;;;;;;0.80;0.80;;;;;;;3.79;92.63;93332.50;5141042;27;20202;-69
2020/12/28 05:54:40;;;;;;;1.37;0.90;;;;;;;3.71;93.18;93332.00;5152067;27;20660;-67
2020/12/28 05:57:06;;;;;;;1.70;0.90;;;;;;;3.74;93.30;93331.47;5138243;27;20185;-67
2020/12/28 05:59:32;;;;;;;0.80;0.80;;;;;;;3.67;93.59;93330.22;5153353;27;20166;-66
2020/12/28 06:01:59;;;;;;;2.37;0.77;;;;;;;3.57;93.98;93330.28;5117884;27;20714;-66
2020/12/28 06:04:25;;;;;;;0.93;0.80;;;;;;;3.60;94.33;93332.34;5093418;28;20177;-67
2020/12/28 06:06:59;;;;;;;1.93;0.80;;;;;;;3.70;94.07;93334.88;5093775;28;20192;-67
2020/12/28 06:09:26;;;;;;;0.90;0.90;;;;;;;3.66;94.41;93332.06;5093201;28;20619;-67
2020/12/28 06:12:02;;;;;;;1.90;1.00;;;;;;;3.81;93.58;93335.56;5094000;28;20230;-67
2020/12/28 06:14:34;;;;;;;1.00;1.00;;;;;;;3.64;95.18;93328.94;5093604;28;20204;-66
2020/12/28 06:17:07;;;;;;;1.03;1.03;;;;;;;3.74;94.59;93328.09;5093268;28;20173;-66
2020/12/28 06:19:33;;;;;;;1.10;1.00;;;;;;;3.76;93.83;93337.16;5091923;28;20222;-66
2020/12/28 06:21:59;;;;;;;1.30;1.20;;;;;;;3.74;94.57;93333.28;5093569;28;20172;-66
2020/12/28 06:24:32;;;;;;;1.40;1.30;;;;;;;3.59;94.89;93339.34;5092848;28;20634;-66
2020/12/28 06:27:02;;;;;;;1.50;1.40;;;;;;;3.60;95.25;93335.72;5093526;28;20622;-67
2020/12/28 06:29:29;;;;;;;1.43;1.07;;;;;;;3.63;95.11;93344.75;5093313;28;20173;-66
2020/12/28 06:31:54;;;;;;;1.53;0.80;;;;;;;3.61;95.66;93339.06;5093596;28;20188;-67
2020/12/28 06:34:20;;;;;;;2.27;0.80;;;;;;;3.68;93.75;93347.28;5092769;28;20193;-67
2020/12/28 06:36:46;;;;;;;0.73;0.73;;;;;;;3.59;94.35;93341.91;5092813;28;20179;-66
2020/12/28 06:39:17;;;;;;;0.70;0.70;;;;;;;3.68;94.31;93334.34;5093009;28;20185;-68
2020/12/28 06:41:43;;;;;;;1.27;0.60;;;;;;;3.56;94.58;93336.50;5091552;28;20173;-67
2020/12/28 06:44:09;;;;;;;0.97;0.70;;;;;;;3.59;94.37;93341.16;5090647;28;20214;-64
2020/12/28 06:46:37;;;;;;;0.97;0.70;;;;;;;4.24;96.34;93337.31;5091530;28;20261;-65
2020/12/28 06:49:02;;;;;;;0.60;0.60;;;;;;;4.23;92.58;93338.38;5091951;28;20231;-66
2020/12/28 06:51:28;;;;;;;0.80;0.80;;;;;;;4.23;91.92;93343.56;5090912;28;20200;-66
2020/12/28 06:53:55;;;;;;;0.80;0.80;;;;;;;4.09;92.54;93342.63;5092158;28;20286;-67
2020/12/28 06:56:25;;;;;;;1.37;0.70;;;;;;;3.96;93.36;93336.22;5091569;28;20183;-65
2020/12/28 06:58:58;;;;;;;0.77;0.77;;;;;;;4.00;92.83;93333.91;5082896;28;20181;-65
2020/12/28 07:01:25;;;;;;;0.60;0.60;;;;;;;3.88;93.80;93336.06;5096315;28;20238;-66
2020/12/28 07:03:51;;;;;;;0.87;0.80;;;;;;;3.84;95.16;93335.81;5112996;28;20537;-67
2020/12/28 07:06:18;;;;;;;1.50;0.70;;;;;;;3.87;95.05;93335.28;5112726;28;20641;-70
2020/12/28 07:08:43;;;;;;;0.73;0.73;;;;;;;3.79;94.94;93337.69;5113255;28;20544;-68
2020/12/28 07:11:09;;;;;;;1.10;1.10;;;;;;;3.78;96.04;93342.06;5113386;27;20176;-65
2020/12/28 07:13:34;;;;;;;0.97;0.87;;;;;;;3.73;96.49;93337.69;5112143;28;20747;-66
2020/12/28 07:16:06;;;;;;;2.00;0.90;;;;;;;3.87;95.91;93339.69;5112785;28;20292;-66
2020/12/28 07:18:32;;;;;;;1.77;1.03;;;;;;;3.82;96.42;93344.91;5112297;28;20183;-65
2020/12/28 07:20:59;;;;;;;1.00;0.90;;;;;;;3.81;96.01;93338.16;5111221;28;20176;-66
2020/12/28 07:23:25;;;;;;;1.63;1.33;;;;;;;3.81;96.35;93340.75;5111342;28;20207;-66
2020/12/28 07:26:11;;;;;;;3.10;1.20;;;;;;;3.81;95.79;93340.75;5112862;28;20534;-65
2020/12/28 07:28:38;;;;;;;0.83;0.83;;;;;;;3.76;96.10;93336.38;5112419;28;20180;-65
2020/12/28 07:31:06;;;;;;;1.77;1.10;;;;;;;3.84;95.96;93335.81;5112841;28;20192;-66
2020/12/28 07:33:32;;;;;;;0.80;0.80;;;;;;;3.93;95.78;93333.41;5111875;28;20779;-65
2020/12/28 07:36:11;;;;;;;0.77;0.77;;;;;;;3.94;95.06;93329.78;5112810;28;20196;-65
2020/12/28 07:38:38;;;;;;;0.90;0.90;;;;;;;3.95;95.13;93332.13;5112383;28;20179;-65
2020/12/28 07:41:03;;;;;;;1.20;0.80;;;;;;;3.86;95.48;93322.59;5112861;28;20630;-65
2020/12/28 07:43:29;;;;;;;2.07;1.00;;;;;;;3.82;95.52;93319.78;5111540;28;20220;-65
2020/12/28 07:46:24;;;;;;;0.70;0.70;;;;;;;3.72;96.11;93319.84;5111587;27;20172;-66
2020/12/28 07:48:53;;;;;;;0.93;0.80;;;;;;;3.60;97.42;93324.56;5108287;28;20562;-64
2020/12/28 07:51:23;;;;;;;0.80;0.80;;;;;;;3.63;97.88;93313.66;5111841;28;20206;-66
2020/12/28 07:53:52;;;;;;;1.57;0.80;;;;;;;3.65;97.61;93309.78;5111787;28;20208;-65
2020/12/28 07:56:43;;;;;;;1.43;0.83;;;;;;;3.62;97.49;93299.19;5111227;28;20174;-65
2020/12/28 07:59:26;;;;;;;0.80;0.80;;;;;;;3.53;98.01;93298.97;5111051;28;20184;-65
2020/12/28 08:01:55;;;;;;;1.33;0.80;;;;;;;3.56;97.93;93301.03;5099135;28;20261;-65
2020/12/28 08:04:22;;;;;;;0.93;0.93;;;;;;;3.61;98.29;93292.47;5091684;28;20169;-67
2020/12/28 08:06:49;;;;;;;1.23;1.10;;;;;;;3.56;98.15;93292.50;5091530;28;20661;-66
2020/12/28 08:09:21;;;;;;;0.80;0.80;;;;;;;3.69;96.80;93292.66;5090457;28;20204;-67
2020/12/28 08:11:58;;;;;;;0.80;0.80;;;;;;;3.65;97.81;93288.28;5091329;28;20229;-65
2020/12/28 08:14:24;;;;;;;0.80;0.80;;;;;;;3.73;96.12;93285.13;5091123;28;20230;-64
2020/12/28 08:16:50;;;;;;;1.10;1.00;;;;;;;3.81;96.06;93283.78;5091776;28;20165;-66
2020/12/28 08:19:26;;;;;;;2.00;1.10;;;;;;;3.80;94.45;93272.63;5090947;28;20193;-66
2020/12/28 08:21:52;;;;;;;0.80;0.80;;;;;;;3.78;94.93;93263.59;5091615;28;20175;-65
2020/12/28 08:24:18;;;;;;;0.60;0.60;;;;;;;3.69;94.53;93263.41;5091573;28;20222;-67
2020/12/28 08:26:45;;;;;;;0.60;0.60;;;;;;;3.64;95.67;93271.97;5091695;28;20192;-64
2020/12/28 08:29:11;;;;;;;0.60;0.60;;;;;;;3.74;95.01;93284.06;5090466;28;20176;-65
2020/12/28 08:31:36;;;;;;;1.60;0.70;;;;;;;3.70;95.75;93277.91;5090784;28;20237;-66
2020/12/28 08:34:27;;;;;;;0.60;0.60;;;;;;;3.68;95.20;93277.38;5091314;28;20838;-65
2020/12/28 08:36:54;;;;;;;0.53;0.53;;;;;;;3.66;94.87;93289.84;5091707;28;20569;-64
2020/12/28 08:39:21;;;;;;;0.90;0.53;;;;;;;3.61;95.85;93266.56;5091220;28;20176;-65
2020/12/28 08:42:01;;;;;;;1.23;0.50;;;;;;;3.69;94.96;93264.16;5091273;28;20169;-64
2020/12/28 08:44:32;;;;;;;1.17;0.73;;;;;;;3.62;95.77;93244.81;5090956;28;20198;-68
2020/12/28 08:46:58;;;;;;;0.93;0.70;;;;;;;3.66;95.57;93256.97;5091560;28;20180;-60
2020/12/28 08:49:28;;;;;;;0.67;0.67;;;;;;;3.63;95.91;93260.06;5091025;28;20183;-64
2020/12/28 08:51:54;;;;;;;1.07;1.07;;;;;;;3.70;96.24;93311.56;5075479;28;20191;-67
2020/12/28 08:54:27;;;;;;;1.10;0.80;;;;;;;3.76;97.33;93316.44;5090223;28;20726;-67
2020/12/28 08:56:54;;;;;;;0.60;0.60;;;;;;;3.66;98.02;93323.50;5090889;28;20188;-65
2020/12/28 08:59:21;;;;;;;0.63;0.63;;;;;;;3.63;98.22;93332.56;5091654;28;20240;-66
2020/12/28 09:01:53;;;;;;;1.70;0.90;;;;;;;3.72;97.75;93332.78;5103788;27;20266;-63
2020/12/28 09:04:21;;;;;;;0.80;0.80;;;;;;;3.66;98.71;93324.28;5127772;27;20181;-74
2020/12/28 09:06:47;;;;;;;1.83;0.93;;;;;;;3.68;99.22;93327.34;5123064;27;20168;-65
2020/12/28 09:09:14;;;;;;;1.20;1.10;;;;;;;3.73;98.95;93329.91;5097327;28;20688;-63
2020/12/28 09:11:40;;;;;;;1.90;1.40;;;;;;;3.66;98.86;93334.63;5131865;27;20183;-63
2020/12/28 09:14:06;;;;;;;1.13;1.07;;;;;;;3.63;98.94;93334.38;5119584;27;20210;-64
2020/12/28 09:16:32;;;;;;;1.40;1.20;;;;;;;3.66;99.18;93334.63;5127579;27;20629;-62
2020/12/28 09:18:57;;;;;;;1.50;1.33;;;;;;;3.65;99.27;93335.69;5124076;27;20183;-63
2020/12/28 09:21:23;;;;;;;3.20;1.40;;;;;;;3.67;99.11;93336.19;5114557;27;20638;-62
2020/12/28 09:23:48;;;;;;;0.93;0.93;;;;;;;3.70;99.38;93335.63;5116310;27;20196;-63
2020/12/28 09:26:14;;;;;;;1.03;1.03;;;;;;;3.71;99.62;93329.44;5122734;27;20183;-62
2020/12/28 09:28:39;;;;;;;1.00;1.00;;;;;;;3.73;98.66;93324.72;5122738;27;21090;-65
2020/12/28 09:31:05;;;;;;;1.10;1.10;;;;;;;3.81;99.04;93335.56;5132874;27;20227;-67
2020/12/28 09:33:32;;;;;;;1.10;1.10;;;;;;;3.83;98.96;93333.50;5119086;27;20200;-65
2020/12/28 09:35:57;;;;;;;1.00;1.00;;;;;;;3.89;97.98;93329.84;5123549;27;20613;-65
2020/12/28 09:38:22;;;;;;;1.10;1.10;;;;;;;3.91;98.25;93327.72;5127885;27;20259;-64
2020/12/28 09:40:48;;;;;;;1.40;1.30;;;;;;;3.90;98.73;93323.63;5118193;27;20535;-63
2020/12/28 09:43:13;;;;;;;1.00;1.00;;;;;;;3.99;97.99;93312.41;5131462;27;20217;-62
2020/12/28 09:45:39;;;;;;;1.00;1.00;;;;;;;4.03;97.31;93310.03;5115052;27;20168;-65
2020/12/28 09:48:05;;;;;;;2.20;1.23;;;;;;;3.99;98.67;93303.84;5096114;28;20186;-62
2020/12/28 09:50:31;;;;;;;3.20;1.50;;;;;;;4.12;98.12;93300.63;5112995;27;20171;-62
2020/12/28 09:52:56;;;;;;;1.13;1.13;;;;;;;4.16;98.43;93306.81;5113932;27;20196;-63
2020/12/28 09:55:22;;;;;;;1.40;1.30;;;;;;;4.19;98.06;93298.50;5115269;27;20201;-63
2020/12/28 09:57:48;;;;;;;1.53;1.43;;;;;;;4.16;98.01;93302.41;5119774;27;20215;-65
2020/12/28 10:00:14;;;;;;;2.43;1.60;;;;;;;4.10;97.52;93297.53;5124514;27;20190;-64
2020/12/28 10:02:40;;;;;;;2.30;1.60;;;;;;;4.06;97.56;93299.13;5115454;27;20314;-63
2020/12/28 10:05:09;;;;;;;1.60;1.50;;;;;;;4.03;98.23;93302.25;5116485;27;20291;-63
2020/12/28 10:07:37;;;;;;;1.73;1.63;;;;;;;4.06;98.16;93299.91;5116061;27;20171;-64
2020/12/28 10:10:08;;;;;;;2.10;1.93;;;;;;;4.06;98.16;93294.72;5135313;27;20179;-63
2020/12/28 10:12:34;;;;;;;2.07;1.40;;;;;;;4.08;98.37;93302.97;5121809;27;20333;-64
2020/12/28 10:14:59;;;;;;;1.97;1.77;;;;;;;4.19;98.41;93303.66;5130230;27;20195;-65
2020/12/28 10:17:25;;;;;;;1.70;1.60;;;;;;;4.25;98.14;93299.22;5125044;27;20179;-66
2020/12/28 10:19:50;;;;;;;2.33;1.60;;;;;;;4.24;97.43;93303.63;5135423;27;20173;-63
2020/12/28 10:22:16;;;;;;;2.47;1.90;;;;;;;4.31;97.41;93305.91;5134028;27;20203;-61
2020/12/28 10:24:42;;;;;;;1.93;1.80;;;;;;;4.22;96.96;93299.78;5131322;27;20167;-62
2020/12/28 10:27:07;;;;;;;2.07;1.80;;;;;;;4.25;96.49;93292.22;5120609;27;20259;-66
2020/12/28 10:29:33;;;;;;;1.70;1.60;;;;;;;4.27;96.19;93297.13;5116758;27;20268;-62
2020/12/28 10:31:59;;;;;;;2.13;1.93;;;;;;;4.32;95.65;93286.72;5126388;27;20217;-63
2020/12/28 10:34:25;;;;;;;2.30;2.10;;;;;;;4.34;95.90;93290.59;5123821;27;20213;-63
2020/12/28 10:36:52;;;;;;;2.40;2.20;;;;;;;4.41;94.94;93285.06;5123685;27;20210;-64
2020/12/28 10:39:17;;;;;;;2.77;2.40;;;;;;;4.33;94.99;93291.63;5131323;27;20167;-67
2020/12/28 10:41:43;;;;;;;4.17;2.30;;;;;;;4.28;95.32;93288.31;5116232;27;20168;-65
2020/12/28 10:44:08;;;;;;;3.13;2.40;;;;;;;4.40;94.83;93286.88;5128852;27;20163;-63
2020/12/28 10:46:37;;;;;;;3.13;2.53;;;;;;;4.48;93.42;93275.94;5113453;27;20164;-65
2020/12/28 10:49:06;;;;;;;2.23;2.10;;;;;;;4.48;92.70;93275.94;5131932;27;20171;-63
2020/12/28 10:51:32;;;;;;;2.93;2.60;;;;;;;4.47;92.88;93274.38;5121131;27;20183;-65
2020/12/28 10:53:58;;;;;;;3.00;2.80;;;;;;;4.63;92.11;93272.41;5114296;27;20581;-64
2020/12/28 10:56:28;;;;;;;3.03;2.73;;;;;;;4.51;91.75;93277.97;5128884;27;20192;-65
2020/12/28 10:58:54;;;;;;;2.77;2.40;;;;;;;4.48;92.78;93278.53;5113527;27;20259;-64
2020/12/28 11:01:22;;;;;;;3.30;3.00;;;;;;;4.51;91.97;93277.97;5108756;27;20232;-66
2020/12/28 11:03:47;;;;;;;2.97;2.77;;;;;;;4.42;91.56;93271.84;5091303;28;20208;-64
2020/12/28 11:06:13;;;;;;;3.53;3.23;;;;;;;4.45;92.42;93270.53;5092778;28;20261;-64
2020/12/28 11:08:38;;;;;;;3.73;3.37;;;;;;;4.24;92.35;93261.38;5091957;28;20181;-65
2020/12/28 11:11:04;;;;;;;5.63;4.53;;;;;;;4.37;91.92;93255.56;5100578;28;20179;-64
2020/12/28 11:13:30;;;;;;;5.60;4.20;;;;;;;4.44;92.72;93248.25;5110683;28;20204;-66
2020/12/28 11:15:56;;;;;;;4.43;3.47;;;;;;;4.48;92.54;93257.00;5097383;28;20211;-64
2020/12/28 11:18:21;;;;;;;3.77;3.27;;;;;;;4.49;92.24;93251.56;5108967;28;20164;-65
2020/12/28 11:20:47;;;;;;;7.33;4.10;;;;;;;4.65;90.87;93243.59;5106835;28;20176;-62
2020/12/28 11:23:12;;;;;;;3.57;3.27;;;;;;;4.72;91.19;93225.88;5093376;28;20208;-64
2020/12/28 11:25:38;;;;;;;3.73;3.17;;;;;;;4.67;90.72;93225.94;5103169;28;20251;-65
2020/12/28 11:28:04;;;;;;;3.00;2.70;;;;;;;4.69;91.02;93222.00;5097241;28;20181;-64
2020/12/28 11:30:29;;;;;;;2.97;2.77;;;;;;;4.78;90.83;93210.00;5094383;28;20263;-64
2020/12/28 11:32:55;;;;;;;3.00;2.70;;;;;;;4.85;90.62;93212.22;5107170;28;20262;-65
2020/12/28 11:35:29;;;;;;;2.80;2.60;;;;;;;4.80;89.79;93200.09;5101130;28;20207;-65
2020/12/28 11:37:54;;;;;;;2.70;2.50;;;;;;;4.95;89.41;93193.97;5098403;28;20184;-65
2020/12/28 11:40:24;;;;;;;2.70;2.50;;;;;;;4.85;89.34;93184.47;5108361;28;20596;-64